Time;durP1;ratioP1;P1;durP2;ratioP2;P2;SDS_P1;SDS_P2;PMS_P1;PMS_P2;Temp;Humidity;BMP_temperature;BMP_pressure;BME280_temperature;BME280_humidity;BME280_pressure;Samples;Min_cycle;Max_cycle;Signal;HPM_P1;HPM_P2
2021/05/12 00:00:19;;;;;;;28.40;11.30;;;17.00;62.60;;;;;;5062492;28;20091;-64
2021/05/12 00:02:45;;;;;;;17.35;10.38;;;17.00;62.70;;;;;;5064366;28;20037;-64
2021/05/12 00:05:13;;;;;;;26.83;10.93;;;17.00;62.60;;;;;;5064952;28;20095;-63
2021/05/12 00:07:41;;;;;;;18.55;11.48;;;17.00;62.60;;;;;;5060331;28;20051;-64
2021/05/12 00:10:10;;;;;;;25.08;10.60;;;17.00;62.70;;;;;;5056473;28;20336;-64
2021/05/12 00:12:39;;;;;;;18.75;10.95;;;16.90;62.60;;;;;;5055375;28;20035;-64
2021/05/12 00:15:10;;;;;;;23.75;11.40;;;16.90;62.60;;;;;;5063817;28;20063;-64
2021/05/12 00:17:45;;;;;;;25.45;10.32;;;16.90;62.60;;;;;;5057859;28;20736;-64
2021/05/12 00:20:14;;;;;;;23.95;10.50;;;16.90;62.60;;;;;;5062633;28;20041;-64
2021/05/12 00:22:48;;;;;;;22.25;11.60;;;16.90;62.60;;;;;;5066744;28;20528;-64
2021/05/12 00:25:14;;;;;;;19.38;10.13;;;16.90;62.60;;;;;;5066189;28;20725;-64
2021/05/12 00:27:40;;;;;;;24.20;10.13;;;16.90;62.50;;;;;;5062717;28;20174;-64
2021/05/12 00:30:14;;;;;;;24.08;9.50;;;16.90;62.60;;;;;;5056086;28;20514;-63
2021/05/12 00:32:45;;;;;;;26.17;10.98;;;16.90;62.60;;;;;;5060491;28;20051;-64
2021/05/12 00:35:12;;;;;;;20.60;10.43;;;16.80;62.50;;;;;;5055187;28;20279;-64
2021/05/12 00:37:41;;;;;;;19.20;10.05;;;16.80;62.50;;;;;;5060323;28;20034;-64
2021/05/12 00:40:09;;;;;;;28.25;10.77;;;16.80;62.60;;;;;;5063307;28;20042;-64
2021/05/12 00:42:35;;;;;;;26.70;10.80;;;16.70;62.60;;;;;;5058583;28;20039;-64
2021/05/12 00:45:04;;;;;;;21.90;10.93;;;16.70;62.60;;;;;;5057294;28;20036;-63
2021/05/12 00:47:31;;;;;;;19.92;10.05;;;16.70;62.70;;;;;;5059557;28;20040;-63
2021/05/12 00:49:59;;;;;;;25.95;11.35;;;16.70;62.70;;;;;;5060561;28;20548;-64
2021/05/12 00:52:28;;;;;;;31.45;11.00;;;16.70;63.40;;;;;;5048462;28;20484;-64
2021/05/12 00:54:56;;;;;;;20.65;10.20;;;16.70;62.70;;;;;;5055246;28;20039;-64
2021/05/12 00:57:22;;;;;;;27.70;10.98;;;16.70;62.70;;;;;;5069035;28;20086;-63
2021/05/12 00:59:52;;;;;;;23.55;11.85;;;16.70;62.70;;;;;;5048384;28;20253;-64
2021/05/12 01:02:23;;;;;;;20.40;10.90;;;16.70;62.60;;;;;;5062949;28;20117;-63
2021/05/12 01:04:49;;;;;;;24.52;11.48;;;16.70;62.60;;;;;;5058169;28;20656;-63
2021/05/12 01:07:14;;;;;;;21.42;10.95;;;16.70;62.60;;;;;;5053495;28;20043;-63
2021/05/12 01:09:40;;;;;;;22.88;11.88;;;16.60;62.60;;;;;;5065553;28;20448;-63
2021/05/12 01:12:07;;;;;;;32.47;14.73;;;16.60;62.70;;;;;;5058069;28;20032;-64
2021/05/12 01:14:33;;;;;;;29.92;14.20;;;16.60;62.70;;;;;;5053084;28;20046;-64
2021/05/12 01:17:01;;;;;;;35.97;15.30;;;16.60;62.80;;;;;;5058164;28;20938;-64
2021/05/12 01:19:27;;;;;;;37.28;16.13;;;16.60;63.00;;;;;;5058246;28;20071;-64
2021/05/12 01:21:54;;;;;;;35.97;16.67;;;16.60;63.00;;;;;;5036361;28;20143;-64
2021/05/12 01:24:20;;;;;;;39.53;17.73;;;16.60;63.10;;;;;;5059446;28;20101;-64
2021/05/12 01:26:48;;;;;;;38.03;17.23;;;16.60;63.10;;;;;;5066127;28;20493;-64
2021/05/12 01:29:16;;;;;;;35.80;17.10;;;16.60;63.10;;;;;;5059963;28;20044;-64
2021/05/12 01:31:44;;;;;;;43.15;17.42;;;16.70;63.10;;;;;;5045257;28;20028;-63
2021/05/12 01:34:18;;;;;;;39.65;18.15;;;16.70;63.10;;;;;;5062554;28;20035;-63
2021/05/12 01:36:51;;;;;;;41.50;17.42;;;16.70;63.10;;;;;;5062137;28;20913;-64
2021/05/12 01:39:16;;;;;;;41.33;18.48;;;16.60;63.10;;;;;;5059313;28;20059;-64
2021/05/12 01:41:43;;;;;;;34.60;17.08;;;16.70;63.20;;;;;;5062047;28;23295;-64
2021/05/12 01:44:10;;;;;;;36.13;17.60;;;16.70;63.30;;;;;;5066004;28;20085;-64
2021/05/12 01:46:41;;;;;;;41.10;17.35;;;16.70;63.20;;;;;;5067185;28;20035;-63
2021/05/12 01:49:08;;;;;;;38.25;17.75;;;16.70;63.20;;;;;;5054907;28;20066;-64
2021/05/12 01:51:34;;;;;;;39.15;16.45;;;16.70;63.20;;;;;;5060901;28;20036;-64
2021/05/12 01:54:00;;;;;;;37.40;16.88;;;16.70;63.20;;;;;;5061832;28;20080;-63
2021/05/12 01:56:26;;;;;;;29.65;16.23;;;16.70;63.20;;;;;;5059457;28;20518;-64
2021/05/12 01:58:51;;;;;;;34.35;14.75;;;16.70;63.20;;;;;;5060227;28;20039;-64
2021/05/12 02:01:17;;;;;;;34.83;15.13;;;16.70;63.20;;;;;;5058051;28;20586;-64
2021/05/12 02:03:43;;;;;;;30.10;14.77;;;16.70;63.30;;;;;;5068891;28;20036;-64
2021/05/12 02:06:08;;;;;;;27.83;13.57;;;16.70;63.20;;;;;;5066296;28;20436;-63
2021/05/12 02:08:34;;;;;;;30.13;13.93;;;16.60;63.20;;;;;;5059004;28;20038;-63
2021/05/12 02:11:11;;;;;;;27.33;13.52;;;16.60;63.20;;;;;;5056567;28;20164;-64
2021/05/12 02:13:36;;;;;;;30.75;14.43;;;16.60;63.30;;;;;;5055229;28;20039;-63
2021/05/12 02:16:09;;;;;;;36.80;14.15;;;16.60;63.20;;;;;;5062256;28;20139;-63
2021/05/12 02:18:37;;;;;;;24.27;13.73;;;16.60;63.40;;;;;;5064361;28;20405;-64
2021/05/12 02:21:03;;;;;;;28.52;13.88;;;16.60;63.40;;;;;;5052426;28;20050;-64
2021/05/12 02:23:32;;;;;;;28.58;14.63;;;16.60;63.40;;;;;;5059093;28;20043;-64
2021/05/12 02:25:58;;;;;;;28.30;13.38;;;16.60;63.40;;;;;;5059719;28;20042;-62
2021/05/12 02:28:24;;;;;;;26.45;12.75;;;16.50;63.40;;;;;;5048184;28;20044;-63
2021/05/12 02:30:49;;;;;;;25.60;12.38;;;16.50;63.50;;;;;;5052375;28;20474;-63
2021/05/12 02:33:17;;;;;;;21.83;12.23;;;16.50;63.30;;;;;;5054040;28;20063;-64
2021/05/12 02:35:43;;;;;;;26.35;12.73;;;16.50;63.50;;;;;;5062952;28;20032;-63
2021/05/12 02:38:08;;;;;;;31.95;13.02;;;16.50;63.50;;;;;;5057185;28;20032;-64
2021/05/12 02:40:39;;;;;;;26.40;12.63;;;16.50;63.60;;;;;;5057959;28;20037;-64
2021/05/12 02:43:05;;;;;;;36.10;12.85;;;16.50;63.60;;;;;;5059271;28;20047;-63
2021/05/12 02:45:32;;;;;;;24.42;13.05;;;16.50;63.50;;;;;;5053322;28;20417;-64
2021/05/12 02:48:00;;;;;;;30.27;14.00;;;16.50;63.50;;;;;;5051789;28;20032;-64
2021/05/12 02:50:38;;;;;;;29.95;13.98;;;16.50;63.60;;;;;;5054929;28;20036;-64
2021/05/12 02:53:05;;;;;;;23.00;13.52;;;16.50;63.60;;;;;;5061763;28;20035;-63
2021/05/12 02:55:31;;;;;;;24.67;12.93;;;16.50;63.60;;;;;;5051971;28;20043;-64
2021/05/12 02:57:58;;;;;;;29.48;13.02;;;16.50;63.60;;;;;;5063191;28;20044;-64
2021/05/12 03:00:26;;;;;;;26.42;13.25;;;16.50;63.70;;;;;;5045838;28;20562;-64
2021/05/12 03:02:52;;;;;;;26.67;13.60;;;16.40;64.00;;;;;;5047731;28;20044;-64
2021/05/12 03:05:23;;;;;;;27.73;13.93;;;16.40;63.60;;;;;;5048871;28;20521;-64
2021/05/12 03:07:53;;;;;;;28.30;13.25;;;16.40;63.80;;;;;;5054674;28;20040;-64
2021/05/12 03:10:21;;;;;;;26.80;13.45;;;16.40;63.60;;;;;;5052189;28;20204;-63
2021/05/12 03:12:49;;;;;;;32.22;13.90;;;16.40;63.60;;;;;;5057086;28;20512;-63
2021/05/12 03:15:18;;;;;;;26.25;12.80;;;16.40;63.60;;;;;;5059897;28;20051;-64
2021/05/12 03:17:47;;;;;;;29.58;15.38;;;16.40;63.60;;;;;;5059525;28;20124;-64
2021/05/12 03:20:15;;;;;;;31.02;14.10;;;16.40;63.50;;;;;;5055695;28;20047;-64
2021/05/12 03:22:41;;;;;;;31.23;13.68;;;16.40;63.60;;;;;;5046829;28;20039;-64
2021/05/12 03:25:07;;;;;;;31.60;14.77;;;16.40;63.50;;;;;;5064950;28;20036;-63
2021/05/12 03:27:33;;;;;;;30.77;12.95;;;16.30;63.50;;;;;;5059991;28;20520;-64
2021/05/12 03:30:01;;;;;;;31.83;14.00;;;16.30;63.60;;;;;;5059503;28;20032;-64
2021/05/12 03:32:26;;;;;;;29.52;14.63;;;16.40;63.70;;;;;;5054875;28;20044;-64
2021/05/12 03:34:54;;;;;;;29.55;14.52;;;16.40;63.80;;;;;;5064152;28;20081;-64
2021/05/12 03:37:20;;;;;;;31.42;13.95;;;16.30;63.60;;;;;;5062122;28;20679;-63
2021/05/12 03:39:45;;;;;;;32.70;14.35;;;16.40;63.80;;;;;;5053201;28;20036;-64
2021/05/12 03:42:11;;;;;;;31.38;14.20;;;16.40;63.70;;;;;;5054256;28;20543;-64
2021/05/12 03:44:37;;;;;;;29.70;14.18;;;16.40;63.60;;;;;;5055683;28;20409;-64
2021/05/12 03:47:02;;;;;;;28.88;14.18;;;16.40;63.60;;;;;;5063779;28;20043;-63
2021/05/12 03:49:30;;;;;;;25.58;13.50;;;16.40;63.80;;;;;;5058578;28;20435;-64
2021/05/12 03:52:00;;;;;;;26.30;14.07;;;16.40;63.70;;;;;;5055336;28;20042;-64
2021/05/12 03:54:28;;;;;;;26.52;13.85;;;16.30;64.40;;;;;;5058222;28;20047;-64
2021/05/12 03:56:55;;;;;;;27.95;13.65;;;16.30;63.70;;;;;;5062684;28;20517;-64
2021/05/12 03:59:23;;;;;;;29.15;14.07;;;16.40;64.50;;;;;;5040451;28;20036;-64
2021/05/12 04:01:49;;;;;;;26.33;13.10;;;16.30;63.80;;;;;;5044677;28;20532;-64
2021/05/12 04:04:16;;;;;;;25.58;13.93;;;16.40;63.80;;;;;;5055801;28;20501;-63
2021/05/12 04:06:44;;;;;;;28.42;13.57;;;16.40;63.70;;;;;;5063437;28;20506;-64
2021/05/12 04:09:10;;;;;;;22.52;12.85;;;16.40;63.70;;;;;;5068597;28;20036;-64
2021/05/12 04:11:36;;;;;;;23.05;13.38;;;16.40;63.60;;;;;;5061972;28;20051;-64
2021/05/12 04:14:02;;;;;;;27.10;13.07;;;16.40;63.60;;;;;;5057904;28;20040;-64
2021/05/12 04:16:27;;;;;;;24.10;13.18;;;16.40;63.60;;;;;;5059041;28;20055;-64
2021/05/12 04:18:55;;;;;;;28.98;13.52;;;16.40;63.60;;;;;;5057668;28;20405;-64
2021/05/12 04:21:20;;;;;;;26.77;13.38;;;16.50;63.60;;;;;;5062590;28;20125;-64
2021/05/12 04:23:46;;;;;;;23.90;13.77;;;16.40;63.60;;;;;;5058281;28;20797;-64
2021/05/12 04:26:12;;;;;;;27.95;13.65;;;16.40;63.60;;;;;;5054165;28;20503;-63
2021/05/12 04:28:37;;;;;;;26.42;13.20;;;16.50;63.60;;;;;;5057850;28;20379;-64
2021/05/12 04:31:03;;;;;;;25.55;13.52;;;16.50;63.60;;;;;;5039149;28;20051;-64
2021/05/12 04:33:28;;;;;;;28.98;13.93;;;16.50;63.60;;;;;;5058646;28;20036;-64
2021/05/12 04:35:54;;;;;;;27.33;13.57;;;16.50;63.40;;;;;;5062250;28;20094;-64
2021/05/12 04:38:20;;;;;;;22.73;12.77;;;16.50;63.40;;;;;;5045809;28;20513;-64
2021/05/12 04:40:45;;;;;;;28.40;14.68;;;16.50;63.40;;;;;;5037425;28;20070;-64
2021/05/12 04:43:16;;;;;;;25.00;13.35;;;16.50;63.50;;;;;;5062198;28;20035;-64
2021/05/12 04:45:42;;;;;;;25.27;12.70;;;16.60;63.50;;;;;;5060851;28;20506;-64
2021/05/12 04:48:07;;;;;;;24.92;12.82;;;16.60;63.50;;;;;;5065294;28;20090;-63
2021/05/12 04:50:34;;;;;;;22.25;12.48;;;16.60;63.40;;;;;;5034664;28;20037;-64
2021/05/12 04:53:00;;;;;;;25.35;12.82;;;16.70;63.40;;;;;;5073325;28;20037;-64
2021/05/12 04:55:26;;;;;;;28.52;12.13;;;16.70;63.40;;;;;;5069500;28;20044;-64
2021/05/12 04:57:52;;;;;;;25.42;13.43;;;16.70;63.30;;;;;;5062238;28;21453;-63
2021/05/12 05:00:21;;;;;;;25.70;13.57;;;16.70;63.20;;;;;;5052117;28;20057;-64
2021/05/12 05:02:51;;;;;;;25.48;13.20;;;16.70;63.10;;;;;;5037966;28;20208;-64
2021/05/12 05:05:18;;;;;;;23.88;13.05;;;16.80;63.20;;;;;;5070855;28;20028;-63
2021/05/12 05:07:44;;;;;;;24.48;13.00;;;16.80;63.10;;;;;;5066920;28;20068;-63
2021/05/12 05:10:10;;;;;;;22.08;13.13;;;16.80;63.10;;;;;;5056116;28;20432;-64
2021/05/12 05:12:38;;;;;;;22.08;13.13;;;16.90;63.10;;;;;;5064278;28;20521;-64
2021/05/12 05:15:04;;;;;;;24.80;13.13;;;16.90;62.90;;;;;;5064591;28;20040;-63
2021/05/12 05:17:31;;;;;;;28.80;14.25;;;16.90;62.90;;;;;;5075532;28;20092;-64
2021/05/12 05:19:58;;;;;;;27.75;14.05;;;;;;;;;;5062797;28;20093;-64
2021/05/12 05:22:25;;;;;;;24.73;13.45;;;16.90;62.70;;;;;;5067365;28;20470;-64
2021/05/12 05:24:52;;;;;;;28.42;14.93;;;16.90;62.80;;;;;;5065616;28;20075;-64
2021/05/12 05:27:20;;;;;;;30.63;15.55;;;16.90;62.70;;;;;;5065348;28;20448;-64
2021/05/12 05:29:46;;;;;;;30.65;15.10;;;16.90;62.70;;;;;;5065235;28;20452;-63
2021/05/12 05:32:12;;;;;;;30.83;14.35;;;16.90;62.60;;;;;;5063090;28;20036;-63
2021/05/12 05:34:41;;;;;;;29.75;14.50;;;16.90;62.60;;;;;;5066126;28;20032;-64
2021/05/12 05:37:07;;;;;;;31.00;15.38;;;17.00;62.70;;;;;;5063595;28;20090;-65
2021/05/12 05:39:36;;;;;;;30.75;16.42;;;17.00;62.60;;;;;;5063249;28;21434;-64
2021/05/12 05:42:11;;;;;;;36.50;16.08;;;17.00;62.70;;;;;;5062464;28;20044;-64
2021/05/12 05:44:41;;;;;;;38.60;17.55;;;17.00;63.30;;;;;;5052927;28;26443;-64
2021/05/12 05:47:09;;;;;;;35.97;18.02;;;17.00;62.40;;;;;;5042049;28;20591;-64
2021/05/12 05:49:37;;;;;;;37.13;19.77;;;17.00;62.40;;;;;;5053579;28;20040;-63
2021/05/12 05:52:04;;;;;;;34.97;18.65;;;17.10;62.60;;;;;;5066127;28;20115;-63
2021/05/12 05:54:30;;;;;;;32.17;17.33;;;17.10;62.50;;;;;;5075234;28;20040;-63
2021/05/12 05:57:03;;;;;;;35.72;18.10;;;17.20;62.50;;;;;;5065241;28;20046;-63
2021/05/12 05:59:28;;;;;;;38.58;18.48;;;17.20;62.50;;;;;;5059561;28;20064;-63
2021/05/12 06:01:56;;;;;;;34.63;18.67;;;17.20;62.20;;;;;;5058524;28;20485;-63
2021/05/12 06:04:24;;;;;;;38.90;19.27;;;17.20;62.30;;;;;;5063136;28;20100;-64
2021/05/12 06:06:56;;;;;;;40.00;21.25;;;17.20;62.20;;;;;;5068606;28;20032;-63
2021/05/12 06:09:23;;;;;;;41.30;19.67;;;17.20;62.10;;;;;;5053339;28;20521;-63
2021/05/12 06:11:49;;;;;;;41.53;20.33;;;17.30;62.20;;;;;;5068590;28;20076;-64
2021/05/12 06:14:14;;;;;;;48.75;20.63;;;17.30;62.20;;;;;;5060643;28;20074;-64
2021/05/12 06:16:40;;;;;;;44.50;20.75;;;17.40;62.30;;;;;;5049699;28;20107;-64
2021/05/12 06:19:06;;;;;;;36.42;20.25;;;17.40;62.10;;;;;;5048068;28;20384;-64
2021/05/12 06:21:31;;;;;;;36.00;18.45;;;17.50;62.10;;;;;;5057047;28;20027;-64
2021/05/12 06:23:57;;;;;;;36.03;19.02;;;17.60;62.10;;;;;;5080376;28;20100;-64
2021/05/12 06:26:23;;;;;;;38.50;19.92;;;17.70;62.00;;;;;;5085421;28;20134;-64
2021/05/12 06:28:49;;;;;;;33.58;19.20;;;17.80;61.80;;;;;;5068192;28;20146;-65
2021/05/12 06:31:19;;;;;;;35.50;18.40;;;17.90;61.40;;;;;;5057520;28;20070;-64
2021/05/12 06:33:47;;;;;;;33.85;18.17;;;17.90;60.80;;;;;;5051536;28;20533;-64
2021/05/12 06:36:14;;;;;;;36.95;18.63;;;17.90;60.60;;;;;;5049287;28;20852;-65
2021/05/12 06:38:42;;;;;;;31.90;17.85;;;17.90;60.70;;;;;;5049854;28;20354;-66
2021/05/12 06:41:10;;;;;;;32.63;18.05;;;17.90;60.60;;;;;;5051025;28;21243;-64
2021/05/12 06:43:36;;;;;;;27.38;17.35;;;17.90;60.80;;;;;;5052151;28;20064;-64
2021/05/12 06:46:02;;;;;;;33.15;16.35;;;17.90;60.80;;;;;;5062346;28;20388;-64
2021/05/12 06:48:29;;;;;;;30.63;16.45;;;18.00;60.80;;;;;;5049045;28;20498;-64
2021/05/12 06:51:00;;;;;;;28.15;15.98;;;18.10;60.50;;;;;;5056719;28;20077;-64
2021/05/12 06:53:34;;;;;;;29.08;15.48;;;18.10;60.40;;;;;;5060025;28;20423;-64
2021/05/12 06:56:05;;;;;;;25.98;14.95;;;18.20;60.10;;;;;;5065661;28;20428;-64
2021/05/12 06:58:32;;;;;;;22.00;14.85;;;18.20;59.90;;;;;;5049826;28;20037;-64
2021/05/12 07:01:00;;;;;;;23.30;14.23;;;18.30;59.80;;;;;;5048246;28;20040;-64
2021/05/12 07:03:27;;;;;;;25.25;14.65;;;18.30;59.60;;;;;;5054791;28;20259;-64
2021/05/12 07:05:55;;;;;;;27.33;14.55;;;18.40;59.80;;;;;;5059767;28;20093;-64
2021/05/12 07:08:23;;;;;;;21.42;12.98;;;18.40;59.70;;;;;;5056149;28;20103;-64
2021/05/12 07:10:49;;;;;;;22.23;12.70;;;18.50;59.40;;;;;;5059220;28;20056;-64
2021/05/12 07:13:15;;;;;;;24.40;13.35;;;18.50;59.40;;;;;;5057313;28;20040;-64
2021/05/12 07:15:40;;;;;;;27.60;13.23;;;18.40;59.30;;;;;;5058489;28;20089;-64
2021/05/12 07:18:08;;;;;;;18.95;11.82;;;18.50;59.20;;;;;;5055619;28;20485;-64
2021/05/12 07:20:38;;;;;;;26.80;12.90;;;18.50;59.20;;;;;;5043631;28;20484;-64
2021/05/12 07:23:09;;;;;;;22.33;13.75;;;18.50;59.20;;;;;;5057227;28;20101;-64
2021/05/12 07:25:39;;;;;;;24.65;13.73;;;18.60;59.10;;;;;;5063616;28;23604;-64
2021/05/12 07:28:05;;;;;;;21.63;13.18;;;18.70;59.30;;;;;;5061658;28;20043;-64
2021/05/12 07:30:32;;;;;;;21.58;12.48;;;18.90;59.10;;;;;;5055850;28;20032;-65
2021/05/12 07:32:57;;;;;;;21.40;12.55;;;19.10;58.80;;;;;;5062334;28;20044;-65
2021/05/12 07:35:23;;;;;;;26.50;12.23;;;19.30;58.20;;;;;;5066388;28;20056;-64
2021/05/12 07:37:51;;;;;;;21.83;11.20;;;19.40;57.90;;;;;;5059911;28;20067;-65
2021/05/12 07:40:16;;;;;;;18.10;11.63;;;19.60;57.90;;;;;;5062097;28;20064;-64
2021/05/12 07:42:44;;;;;;;22.55;11.85;;;19.80;57.50;;;;;;5062677;28;20451;-64
2021/05/12 07:45:11;;;;;;;18.08;11.68;;;19.90;57.10;;;;;;5067209;28;20044;-64
2021/05/12 07:47:37;;;;;;;24.13;10.82;;;19.90;56.80;;;;;;5062733;28;20066;-64
2021/05/12 07:50:05;;;;;;;20.98;11.45;;;20.00;56.20;;;;;;5065131;28;20802;-64
2021/05/12 07:52:31;;;;;;;18.48;11.05;;;20.00;56.00;;;;;;5063294;28;20031;-64
2021/05/12 07:54:56;;;;;;;20.30;10.00;;;19.90;55.90;;;;;;5054682;28;20040;-64
2021/05/12 07:57:22;;;;;;;18.55;11.00;;;19.70;55.70;;;;;;5058320;28;20039;-64
2021/05/12 07:59:50;;;;;;;15.88;9.60;;;19.60;56.40;;;;;;5064381;28;20505;-63
2021/05/12 08:02:18;;;;;;;15.65;9.40;;;19.40;55.90;;;;;;5064324;28;20044;-64
2021/05/12 08:04:44;;;;;;;17.83;10.48;;;19.30;56.10;;;;;;5060274;28;20041;-64
2021/05/12 08:07:10;;;;;;;15.65;10.35;;;19.30;56.30;;;;;;5058220;28;20587;-64
2021/05/12 08:09:38;;;;;;;16.65;10.00;;;;;;;;;;5060027;28;20044;-63
2021/05/12 08:12:04;;;;;;;18.15;10.20;;;19.40;57.10;;;;;;5061241;28;20773;-64
2021/05/12 08:14:32;;;;;;;12.02;9.57;;;19.50;56.80;;;;;;5058330;28;20145;-63
2021/05/12 08:17:00;;;;;;;16.80;9.07;;;19.60;56.50;;;;;;5050837;28;20349;-64
2021/05/12 08:19:26;;;;;;;13.73;9.43;;;19.80;56.20;;;;;;5049143;28;20250;-64
2021/05/12 08:21:54;;;;;;;12.88;8.10;;;19.90;55.90;;;;;;5054988;28;20032;-64
2021/05/12 08:24:19;;;;;;;16.02;9.40;;;20.10;55.70;;;;;;5053436;28;20043;-64
2021/05/12 08:26:47;;;;;;;13.52;8.20;;;20.30;55.00;;;;;;5057768;28;20257;-64
2021/05/12 08:29:16;;;;;;;12.27;8.15;;;20.40;54.70;;;;;;5064140;28;20074;-64
2021/05/12 08:31:44;;;;;;;12.55;8.27;;;20.40;54.20;;;;;;5064852;28;20043;-64
2021/05/12 08:34:13;;;;;;;12.68;8.48;;;20.50;54.10;;;;;;5056560;28;20037;-64
2021/05/12 08:36:39;;;;;;;12.90;8.30;;;20.60;54.00;;;;;;5060737;28;20040;-64
2021/05/12 08:39:10;;;;;;;13.73;9.32;;;20.60;54.00;;;;;;5054477;28;20040;-64
2021/05/12 08:41:41;;;;;;;14.70;9.00;;;20.50;53.60;;;;;;5042264;28;20089;-63
2021/05/12 08:44:13;;;;;;;12.32;9.43;;;20.40;53.40;;;;;;5055764;28;20044;-64
2021/05/12 08:46:40;;;;;;;17.58;9.70;;;20.20;54.20;;;;;;5059756;28;20036;-64
2021/05/12 08:49:08;;;;;;;16.30;9.57;;;20.00;53.80;;;;;;5054231;28;20765;-64
2021/05/12 08:51:33;;;;;;;14.55;8.95;;;19.90;54.30;;;;;;5056372;28;20535;-64
2021/05/12 08:53:59;;;;;;;18.20;9.85;;;19.90;54.80;;;;;;5056447;28;20416;-64
2021/05/12 08:56:25;;;;;;;16.48;9.90;;;19.90;55.10;;;;;;5057706;28;20185;-64
2021/05/12 08:58:53;;;;;;;13.75;9.60;;;20.00;55.20;;;;;;5057142;28;20314;-64
2021/05/12 09:01:19;;;;;;;16.42;9.85;;;20.10;55.00;;;;;;5054966;28;20127;-63
2021/05/12 09:03:47;;;;;;;21.95;10.25;;;20.10;54.70;;;;;;5055947;28;20032;-65
2021/05/12 09:06:13;;;;;;;14.43;9.85;;;20.10;54.50;;;;;;5057228;28;20055;-63
2021/05/12 09:08:42;;;;;;;15.75;10.18;;;20.20;54.60;;;;;;5058402;28;20044;-64
2021/05/12 09:11:07;;;;;;;15.35;9.27;;;20.30;54.60;;;;;;5057856;28;20437;-64
2021/05/12 09:13:38;;;;;;;12.32;8.18;;;20.40;54.60;;;;;;5057187;28;20043;-63
2021/05/12 09:16:21;;;;;;;11.82;8.35;;;20.70;54.60;;;;;;5054623;28;20045;-65
2021/05/12 09:19:11;;;;;;;13.40;7.68;;;20.90;53.60;;;;;;5053025;28;21055;-64
2021/05/12 09:21:49;;;;;;;13.15;8.45;;;21.10;53.00;;;;;;5037226;28;20452;-63
2021/05/12 09:24:19;;;;;;;10.88;7.40;;;21.20;52.50;;;;;;5056374;28;20054;-63
2021/05/12 09:26:49;;;;;;;13.48;7.28;;;21.20;51.80;;;;;;5055953;28;20043;-63
2021/05/12 09:29:24;;;;;;;12.43;7.05;;;21.20;51.80;;;;;;5061335;28;20040;-63
2021/05/12 09:31:50;;;;;;;11.15;6.90;;;21.30;51.60;;;;;;5063014;28;20261;-64
2021/05/12 09:34:16;;;;;;;10.55;5.95;;;21.50;52.00;;;;;;5058988;28;20035;-64
2021/05/12 09:36:41;;;;;;;10.30;5.47;;;21.70;52.00;;;;;;5048092;28;20538;-64
2021/05/12 09:39:13;;;;;;;11.25;4.70;;;22.40;51.60;;;;;;5049726;28;20402;-65
2021/05/12 09:41:38;;;;;;;8.35;4.93;;;23.30;49.80;;;;;;5055521;28;20405;-66
2021/05/12 09:44:06;;;;;;;7.85;4.20;;;;;;;;;;5051771;28;20392;-64
2021/05/12 09:46:40;;;;;;;8.90;4.90;;;24.10;48.90;;;;;;5050438;28;20115;-64
2021/05/12 09:49:07;;;;;;;6.68;4.05;;;;;;;;;;5052640;28;20071;-63
2021/05/12 09:51:35;;;;;;;7.78;4.18;;;;;;;;;;5052440;28;20483;-63
2021/05/12 09:54:05;;;;;;;10.40;4.43;;;;;;;;;;5057708;28;20039;-64
2021/05/12 09:56:37;;;;;;;8.00;4.25;;;;;;;;;;5055147;28;20038;-63
2021/05/12 09:59:08;;;;;;;6.57;3.92;;;26.10;44.10;;;;;;5057763;28;20040;-63
2021/05/12 10:01:47;;;;;;;11.45;4.38;;;25.50;42.70;;;;;;5055507;28;20036;-63
2021/05/12 10:04:42;;;;;;;9.23;3.47;;;25.80;42.00;;;;;;5059498;28;20036;-63
2021/05/12 10:07:20;;;;;;;5.47;3.40;;;26.20;41.90;;;;;;5059312;28;20039;-64
2021/05/12 10:09:48;;;;;;;13.18;3.30;;;;;;;;;;5055564;28;20441;-64
2021/05/12 10:12:15;;;;;;;11.07;2.30;;;;;;;;;;5057769;28;20035;-64
2021/05/12 10:14:42;;;;;;;8.93;2.88;;;;;;;;;;5055552;28;20040;-64
2021/05/12 10:17:09;;;;;;;3.67;2.55;;;;;;;;;;5056529;28;20036;-64
2021/05/12 10:19:36;;;;;;;10.20;2.78;;;;;;;;;;5041811;28;20113;-64
2021/05/12 10:22:02;;;;;;;7.28;2.72;;;;;;;;;;5046912;28;20061;-64
2021/05/12 10:24:29;;;;;;;5.93;2.50;;;;;;;;;;5052218;28;20246;-64
2021/05/12 10:26:55;;;;;;;5.05;2.30;;;;;;;;;;5052868;28;20075;-64
2021/05/12 10:29:22;;;;;;;7.95;2.15;;;;;;;;;;5051223;28;20057;-63
2021/05/12 10:31:50;;;;;;;6.30;2.33;;;;;;;;;;5054587;28;20066;-64
2021/05/12 10:34:17;;;;;;;5.88;2.70;;;;;;;;;;5055376;28;20129;-64
2021/05/12 10:36:43;;;;;;;6.63;2.88;;;;;;;;;;5061185;28;20582;-63
2021/05/12 10:39:11;;;;;;;11.25;2.40;;;;;;;;;;5060416;28;20240;-64
2021/05/12 10:41:50;;;;;;;5.25;2.50;;;;;;;;;;5057206;28;20051;-64
2021/05/12 10:44:25;;;;;;;6.13;2.28;;;;;;;;;;5063059;28;20354;-63
2021/05/12 10:47:14;;;;;;;5.85;2.20;;;;;;;;;;5059283;28;20436;-63
2021/05/12 10:49:51;;;;;;;7.25;3.00;;;;;;;;;;5059543;28;20564;-63
2021/05/12 10:52:18;;;;;;;8.15;2.58;;;;;;;;;;5062111;28;20100;-63
2021/05/12 10:54:44;;;;;;;8.38;2.53;;;;;;;;;;5052066;28;20051;-63
2021/05/12 10:57:11;;;;;;;7.47;3.55;;;;;;;;;;5058952;28;20257;-63
2021/05/12 10:59:44;;;;;;;8.00;3.13;;;;;;;;;;5053786;28;20130;-63
2021/05/12 11:02:12;;;;;;;6.20;2.90;;;;;;;;;;5052574;28;20043;-62
2021/05/12 11:04:58;;;;;;;5.75;2.38;;;;;;;;;;5055759;28;20673;-63
2021/05/12 11:07:24;;;;;;;7.10;2.17;;;;;;;;;;5060811;28;20079;-62
2021/05/12 11:09:50;;;;;;;6.10;2.80;;;;;;;;;;5055815;28;20119;-63
2021/05/12 11:12:21;;;;;;;13.35;2.67;;;;;;;;;;5062835;28;20043;-63
2021/05/12 11:14:57;;;;;;;4.32;2.38;;;;;;;;;;5061294;28;21116;-62
2021/05/12 11:17:40;;;;;;;4.28;2.13;;;;;;;;;;5060403;28;20035;-62
2021/05/12 11:20:12;;;;;;;7.82;2.58;;;;;;;;;;5062154;28;20035;-64
2021/05/12 11:25:23;;;;;;;6.95;2.15;;;;;;;;;;5064831;28;20036;-64
2021/05/12 11:33:09;;;;;;;4.97;1.73;;;;;;;;;;5072338;28;20165;-63
2021/05/12 11:35:45;;;;;;;6.35;2.35;;;;;;;;;;5071543;28;20040;-63
2021/05/12 11:38:17;;;;;;;2.88;1.60;;;;;;;;;;5060793;28;20036;-63
2021/05/12 11:40:58;;;;;;;5.60;1.45;;;;;;;;;;5058962;28;20717;-63
2021/05/12 11:43:31;;;;;;;5.13;1.45;;;;;;;;;;5065758;28;20032;-63
2021/05/12 11:46:05;;;;;;;5.85;1.13;;;;;;;;;;5065405;28;20066;-62
2021/05/12 11:48:35;;;;;;;2.42;1.10;;;;;;;;;;5064692;28;20473;-62
2021/05/12 11:51:03;;;;;;;8.80;0.88;;;;;;;;;;5064282;28;20165;-63
2021/05/12 11:53:29;;;;;;;2.63;1.13;;;27.50;41.40;;;;;;5065608;28;20039;-64
2021/05/12 11:55:58;;;;;;;3.78;1.30;;;27.10;34.20;;;;;;5052681;28;20036;-63
2021/05/12 11:58:25;;;;;;;5.15;1.25;;;26.90;33.40;;;;;;5061217;28;20465;-63
2021/05/12 12:00:53;;;;;;;4.63;1.30;;;26.60;33.40;;;;;;5060332;28;20066;-63
2021/05/12 12:03:24;;;;;;;8.05;1.75;;;26.30;33.90;;;;;;5062241;28;20432;-63
2021/05/12 12:06:05;;;;;;;5.30;1.20;;;26.30;34.70;;;;;;5058324;28;20172;-63
2021/05/12 12:08:32;;;;;;;3.85;1.30;;;26.50;34.30;;;;;;5067910;28;20036;-64
2021/05/12 12:11:09;;;;;;;4.40;1.00;;;26.80;34.70;;;;;;5061156;28;20037;-64
2021/05/12 12:13:35;;;;;;;3.15;1.10;;;;;;;;;;5062570;28;20062;-64
2021/05/12 12:16:01;;;;;;;5.20;1.27;;;;;;;;;;5067837;28;20585;-62
2021/05/12 12:18:28;;;;;;;6.65;1.08;;;;;;;;;;5067919;28;20182;-62
2021/05/12 12:20:54;;;;;;;4.70;1.40;;;;;;;;;;5064972;28;20028;-63
2021/05/12 12:23:28;;;;;;;3.38;0.93;;;;;;;;;;5071003;28;20382;-66
2021/05/12 12:26:23;;;;;;;3.17;1.00;;;;;;;;;;5063865;28;20095;-64
2021/05/12 12:29:02;;;;;;;4.45;1.00;;;27.20;34.00;;;;;;5051572;28;20407;-62
2021/05/12 12:31:31;;;;;;;5.13;0.90;;;27.00;34.20;;;;;;5056951;28;20087;-64
2021/05/12 12:34:19;;;;;;;3.40;0.93;;;27.10;33.50;;;;;;5064501;28;20098;-64
2021/05/12 12:37:03;;;;;;;1.73;1.13;;;27.10;33.30;;;;;;5047994;28;21000;-63
2021/05/12 12:39:36;;;;;;;5.47;1.00;;;;;;;;;;5062818;28;20505;-64
2021/05/12 12:42:02;;;;;;;5.32;1.10;;;27.40;32.90;;;;;;5061206;28;20269;-63
2021/05/12 12:44:39;;;;;;;5.60;1.38;;;27.70;32.10;;;;;;5070066;28;20413;-63
2021/05/12 12:47:13;;;;;;;3.58;1.00;;;27.40;32.10;;;;;;5059254;28;20142;-63
2021/05/12 12:49:51;;;;;;;3.10;0.95;;;27.20;32.70;;;;;;5060457;28;20463;-63
2021/05/12 12:52:26;;;;;;;6.72;0.88;;;27.00;33.60;;;;;;5062885;28;20272;-62
2021/05/12 12:55:03;;;;;;;1.95;0.90;;;26.90;33.50;;;;;;5065066;28;20528;-63
2021/05/12 12:57:42;;;;;;;6.07;1.05;;;26.80;33.30;;;;;;5066083;28;20052;-64
2021/05/12 13:00:17;;;;;;;3.78;0.93;;;26.60;33.90;;;;;;5062647;28;20047;-63
2021/05/12 13:03:15;;;;;;;3.78;0.95;;;26.60;34.30;;;;;;5069748;28;20079;-64
2021/05/12 13:05:48;;;;;;;2.97;1.10;;;26.80;34.70;;;;;;5058162;28;20788;-63